.
WxDataArchive / Data Records for 2015-12-25
2015-12-24 December 2015 2015-12-26

Data Records for Friday, 25 December 2015

Time	Temp	Chill	HIndex	Humid	Dewpt	 Wind 	HiWind	WindDir	Rain 	Barom
-----	----	-----	------	-----	-----	------	------	-------	-----	-----
00:00	42.5	42.5	42.5	77	35.8	0	2	45	0.00	30.034 
00:05	42.5	42.5	42.5	76	35.5	0	1	45	0.00	30.034 
00:10	42.5	42.5	42.5	76	35.5	0	2	45	0.00	30.034 
00:15	42.6	42.6	42.6	75	35.2	0	1	45	0.00	30.035 
00:20	42.6	42.6	42.6	75	35.2	0	0	---	0.00	30.035 
00:25	42.6	42.6	42.6	76	35.6	0	0	---	0.00	30.035 
00:30	42.5	42.5	42.5	76	35.5	0	0	---	0.00	30.037 
00:35	42.5	42.5	42.5	76	35.5	0	1	45	0.00	30.037 
00:40	42.5	42.5	42.5	76	35.5	0	0	---	0.00	30.037 
00:45	42.5	42.5	42.5	76	35.5	0	0	---	0.00	30.043 
00:50	42.5	42.5	42.5	76	35.5	0	1	45	0.00	30.043 
00:55	42.5	42.5	42.5	76	35.5	0	0	---	0.00	30.043 
01:00	42.5	42.5	42.5	76	35.5	0	0	---	0.00	30.035 
01:05	42.5	42.5	42.5	76	35.5	0	0	---	0.00	30.035 
01:10	42.5	42.5	42.5	76	35.5	0	0	---	0.00	30.035 
01:15	42.5	42.5	42.5	77	35.8	0	0	---	0.00	30.033 
01:20	42.3	42.3	42.3	77	35.6	0	0	---	0.00	30.033 
01:25	42.3	42.3	42.3	77	35.6	0	1	45	0.00	30.033 
01:30	42.3	42.3	42.3	78	35.9	0	1	45	0.00	30.031 
01:35	42.3	42.3	42.3	78	35.9	0	1	45	0.00	30.031 
01:40	42.2	42.2	42.2	78	35.8	0	1	45	0.00	30.031 
01:45	42.2	42.2	42.2	78	35.8	0	1	45	0.00	30.033 
01:50	42.1	42.1	42.1	79	36.1	0	1	45	0.00	30.033 
01:55	42.1	42.1	42.1	79	36.1	0	0	---	0.00	30.033 
02:00	41.9	41.9	41.9	79	35.9	0	2	45	0.00	30.041 
02:05	41.9	41.9	41.9	79	35.9	0	2	45	0.00	30.041 
02:10	42.1	42.1	42.1	79	36.1	1	3	45	0.00	30.041 
02:15	42.1	42.1	42.1	79	36.1	0	2	45	0.00	30.033 
02:20	42.1	42.1	42.1	79	36.1	0	3	22	0.00	30.033 
02:25	42.1	42.1	42.1	79	36.1	0	1	22	0.00	30.033 
02:30	42.1	42.1	42.1	80	36.4	0	3	0	0.00	30.037 
02:35	42.1	42.1	42.1	79	36.1	0	1	0	0.00	30.037 
02:40	42.1	42.1	42.1	79	36.1	0	0	---	0.00	30.037 
02:45	42.1	42.1	42.1	80	36.4	0	0	---	0.00	30.047 
02:50	42.1	42.1	42.1	80	36.4	0	0	---	0.00	30.047 
02:55	41.9	41.9	41.9	80	36.2	0	0	---	0.00	30.047 
03:00	41.9	41.9	41.9	80	36.2	0	0	---	0.00	30.048 
03:05	41.9	41.9	41.9	80	36.2	0	0	---	0.00	30.048 
03:10	41.9	41.9	41.9	80	36.2	0	0	---	0.00	30.048 
03:15	41.9	41.9	41.9	81	36.5	0	0	---	0.00	30.060 
03:20	41.9	41.9	41.9	81	36.5	0	0	---	0.00	30.060 
03:25	41.9	41.9	41.9	82	36.8	0	1	0	0.00	30.060 
03:30	41.9	41.9	41.9	82	36.8	0	0	---	0.00	30.065 
03:35	41.9	41.9	41.9	82	36.8	0	0	---	0.00	30.065 
03:40	41.9	41.9	41.9	82	36.8	0	0	---	0.00	30.065 
03:45	41.9	41.9	41.9	82	36.8	0	0	---	0.00	30.065 
03:50	41.9	41.9	41.9	82	36.8	0	1	0	0.00	30.065 
03:55	42.1	42.1	42.1	82	37.0	0	0	---	0.00	30.065 
04:00	42.2	42.2	42.2	82	37.1	0	0	---	0.00	30.063 
04:05	42.2	42.2	42.2	82	37.1	0	0	---	0.00	30.063 
04:10	42.2	42.2	42.2	82	37.1	0	0	---	0.00	30.063 
04:15	42.2	42.2	42.2	82	37.1	0	0	---	0.00	30.065 
04:20	42.2	42.2	42.2	82	37.1	0	0	---	0.00	30.065 
04:25	42.2	42.2	42.2	82	37.1	0	0	---	0.00	30.065 
04:30	42.2	42.2	42.2	82	37.1	0	0	---	0.00	30.067 
04:35	42.3	42.3	42.3	82	37.2	0	0	---	0.00	30.067 
04:40	42.3	42.3	42.3	82	37.2	0	0	---	0.00	30.067 
04:45	42.6	42.6	42.6	82	37.5	0	0	---	0.00	30.064 
04:50	42.9	42.9	42.9	82	37.8	0	0	---	0.00	30.064 
04:55	43.2	43.2	43.2	81	37.8	0	1	0	0.00	30.064 
05:00	43.5	43.5	43.5	80	37.7	0	1	0	0.00	30.064 
05:05	43.8	43.8	43.8	79	37.7	0	1	0	0.00	30.064 
05:10	44.1	44.1	44.1	78	37.7	0	1	0	0.00	30.064 
05:15	44.2	44.2	44.2	78	37.8	0	1	0	0.00	30.074 
05:20	44.2	44.2	44.2	77	37.5	0	1	0	0.00	30.074 
05:25	44.3	44.3	44.3	77	37.6	0	1	0	0.00	30.074 
05:30	44.3	44.3	44.3	76	37.2	0	1	0	0.00	30.077 
05:35	44.5	44.5	44.5	76	37.4	0	1	0	0.00	30.077 
05:40	44.5	44.5	44.5	76	37.4	0	2	0	0.00	30.077 
05:45	44.5	44.5	44.5	75	37.1	0	2	0	0.00	30.079 
05:50	44.5	44.5	44.5	75	37.1	0	1	0	0.00	30.079 
05:55	44.5	44.5	44.5	75	37.1	0	2	0	0.00	30.079 
06:00	44.5	44.5	44.5	76	37.4	0	1	0	0.00	30.086 
06:05	44.5	44.5	44.5	76	37.4	0	1	0	0.00	30.086 
06:10	44.5	44.5	44.5	75	37.1	0	2	0	0.00	30.086 
06:15	44.5	44.5	44.5	75	37.1	0	2	0	0.00	30.087 
06:20	44.5	44.5	44.5	75	37.1	0	1	0	0.00	30.087 
06:25	44.5	44.5	44.5	75	37.1	0	3	0	0.00	30.087 
06:30	44.5	44.5	44.5	75	37.1	0	1	0	0.00	30.099 
06:35	44.3	44.3	44.3	75	36.9	0	1	0	0.00	30.099 
06:40	44.3	44.3	44.3	75	36.9	0	1	0	0.00	30.099 
06:45	44.3	44.3	44.3	75	36.9	0	1	0	0.00	30.102 
06:50	44.2	44.2	44.2	75	36.8	0	1	0	0.00	30.102 
06:55	44.2	44.2	44.2	75	36.8	0	3	0	0.00	30.102 
07:00	44.2	44.2	44.2	75	36.8	0	1	0	0.00	30.114 
07:05	44.1	44.1	44.1	75	36.7	0	2	0	0.00	30.114 
07:10	44.1	44.1	44.1	75	36.7	0	1	0	0.00	30.114 
07:15	44.1	44.1	44.1	75	36.7	0	2	0	0.00	30.126 
07:20	43.9	43.9	43.9	75	36.5	1	4	0	0.00	30.126 
07:25	43.9	43.9	43.9	74	36.2	1	4	292	0.00	30.126 
07:30	43.9	43.9	43.9	74	36.2	0	2	292	0.00	30.125 
07:35	43.8	43.8	43.8	74	36.1	1	4	292	0.00	30.125 
07:40	43.8	43.8	43.8	74	36.1	1	3	292	0.00	30.125 
07:45	43.6	43.6	43.6	74	35.9	0	3	292	0.00	30.128 
07:50	43.6	43.6	43.6	74	35.9	1	3	292	0.00	30.128 
07:55	43.5	43.5	43.5	74	35.8	0	2	292	0.00	30.128 
08:00	43.3	43.3	43.3	74	35.6	1	4	292	0.00	30.132 
08:05	43.2	43.2	43.2	75	35.8	1	4	292	0.00	30.132 
08:10	43.1	43.1	43.1	75	35.7	1	3	292	0.00	30.132 
08:15	42.9	42.9	42.9	75	35.5	0	1	292	0.00	30.133 
08:20	42.8	42.8	42.8	76	35.8	0	2	292	0.00	30.133 
08:25	42.6	42.6	42.6	76	35.6	0	1	292	0.00	30.133 
08:30	42.6	42.6	42.6	76	35.6	0	3	292	0.00	30.143 
08:35	42.5	42.5	42.5	76	35.5	0	3	292	0.00	30.143 
08:40	42.5	42.5	42.5	76	35.5	0	3	292	0.00	30.143 
08:45	42.5	42.5	42.5	76	35.5	0	2	292	0.00	30.152 
08:50	42.5	42.5	42.5	76	35.5	0	3	292	0.00	30.152 
08:55	42.5	42.5	42.5	76	35.5	0	2	292	0.00	30.152 
09:00	42.5	42.5	42.5	76	35.5	0	1	292	0.00	30.162 
09:05	42.5	42.5	42.5	76	35.5	0	3	292	0.00	30.162 
09:10	42.5	42.5	42.5	76	35.5	0	3	225	0.00	30.162 
09:15	42.5	42.5	42.5	76	35.5	1	3	292	0.00	30.170 
09:20	42.5	42.5	42.5	76	35.5	0	2	292	0.00	30.170 
09:25	42.5	42.5	42.5	76	35.5	0	4	292	0.00	30.170 
09:30	42.6	42.6	42.6	76	35.6	0	2	292	0.00	30.178 
09:35	42.6	42.6	42.6	76	35.6	1	4	292	0.00	30.178 
09:40	42.8	42.8	42.8	76	35.8	0	3	292	0.00	30.178 
09:45	42.8	42.8	42.8	76	35.8	1	3	292	0.00	30.184 
09:50	42.8	42.8	42.8	75	35.4	1	4	292	0.00	30.184 
09:55	42.9	42.9	42.9	75	35.5	0	3	292	0.00	30.184 
10:00	42.9	42.9	42.9	75	35.5	1	3	292	0.00	30.197 
10:05	43.1	43.1	43.1	75	35.7	1	4	292	0.00	30.197 
10:10	43.2	43.2	43.2	75	35.8	0	5	270	0.00	30.197 
10:15	43.3	43.3	43.3	74	35.6	0	3	270	0.00	30.210 
10:20	43.3	43.3	43.3	74	35.6	1	4	270	0.00	30.210 
10:25	43.3	43.3	43.3	74	35.6	1	6	338	0.00	30.210 
10:30	43.5	43.5	43.5	73	35.4	1	4	315	0.00	30.221 
10:35	43.6	43.6	43.6	74	35.9	1	4	270	0.00	30.221 
10:40	43.8	43.8	43.8	74	36.1	1	3	292	0.00	30.221 
10:45	43.9	43.9	43.9	73	35.8	1	3	292	0.00	30.222 
10:50	43.9	43.9	43.9	73	35.8	1	4	292	0.00	30.222 
10:55	43.9	43.9	43.9	73	35.8	0	3	315	0.00	30.222 
11:00	43.9	43.9	43.9	73	35.8	1	3	315	0.00	30.214 
11:05	43.9	43.9	43.9	73	35.8	1	5	315	0.00	30.214 
11:10	44.2	44.2	44.2	73	36.1	1	4	315	0.00	30.214 
11:15	44.3	44.3	44.3	73	36.2	0	3	315	0.00	30.221 
11:20	44.5	44.5	44.5	73	36.4	1	3	315	0.00	30.221 
11:25	44.6	44.6	44.6	72	36.1	1	4	45	0.00	30.221 
11:30	44.6	44.6	44.6	72	36.1	0	4	22	0.00	30.216 
11:35	44.8	44.8	44.8	71	36.0	1	4	22	0.00	30.216 
11:40	44.8	44.8	44.8	71	36.0	1	4	0	0.00	30.216 
11:45	44.9	44.9	44.9	71	36.1	1	3	0	0.00	30.215 
11:50	44.9	44.9	44.9	71	36.1	1	4	22	0.00	30.215 
11:55	45.1	45.1	45.1	70	35.9	1	3	45	0.00	30.215 
12:00	45.2	45.2	45.2	71	36.4	0	2	112	0.00	30.209 
12:05	45.2	45.2	45.2	70	36.0	1	4	0	0.00	30.209 
12:10	45.4	45.4	45.4	69	35.8	1	4	338	0.00	30.209 
12:15	45.2	45.2	45.2	69	35.6	1	3	338	0.00	30.203 
12:20	45.2	45.2	45.2	69	35.6	1	3	315	0.00	30.203 
12:25	45.4	45.4	45.4	69	35.8	0	2	315	0.00	30.203 
12:30	45.5	45.5	45.5	69	35.9	1	3	112	0.00	30.203 
12:35	45.4	45.4	45.4	69	35.8	1	4	45	0.00	30.203 
12:40	45.5	45.5	45.5	69	35.9	0	2	22	0.00	30.203 
12:45	45.7	45.7	45.7	69	36.1	0	2	22	0.00	30.200 
12:50	45.8	45.8	45.8	69	36.2	0	3	22	0.00	30.200 
12:55	46.0	46.0	46.0	69	36.4	0	3	22	0.00	30.200 
13:00	46.0	46.0	46.0	68	36.0	0	2	22	0.00	30.204 
13:05	46.1	46.1	46.1	68	36.1	0	1	22	0.00	30.204 
13:10	46.2	46.2	46.2	68	36.2	1	3	45	0.00	30.204 
13:15	46.4	46.4	46.4	67	36.0	0	3	45	0.00	30.206 
13:20	46.4	46.4	46.4	66	35.7	0	2	22	0.00	30.206 
13:25	46.5	46.5	46.5	65	35.4	1	4	22	0.00	30.206 
13:30	46.5	46.5	46.5	66	35.8	0	3	22	0.00	30.205 
13:35	46.5	46.5	46.5	67	36.1	0	2	22	0.00	30.205 
13:40	46.7	46.7	46.7	66	36.0	0	3	22	0.00	30.205 
13:45	46.8	46.8	46.8	66	36.0	0	2	22	0.00	30.206 
13:50	47.0	47.0	47.0	65	35.9	0	2	22	0.00	30.206 
13:55	47.1	47.1	47.1	65	35.9	0	2	68	0.00	30.206 
14:00	47.3	47.3	47.3	65	36.1	1	4	68	0.00	30.214 
14:05	47.4	47.4	47.4	64	35.8	0	2	68	0.00	30.214 
14:10	47.3	47.3	47.3	64	35.7	0	3	45	0.00	30.214 
14:15	47.3	47.3	47.3	63	35.4	0	1	68	0.00	30.216 
14:20	47.1	47.1	47.1	63	35.2	0	2	68	0.00	30.216 
14:25	47.1	47.1	47.1	64	35.6	0	1	68	0.00	30.216 
14:30	47.1	47.1	47.1	64	35.6	0	3	68	0.00	30.220 
14:35	47.0	47.0	47.0	63	35.1	0	3	68	0.00	30.220 
14:40	47.0	47.0	47.0	64	35.5	0	1	45	0.00	30.220 
14:45	47.1	47.1	47.1	63	35.2	0	1	45	0.00	30.224 
14:50	47.1	47.1	47.1	64	35.6	0	3	45	0.00	30.224 
14:55	47.1	47.1	47.1	63	35.2	0	3	45	0.00	30.224 
15:00	47.1	47.1	47.1	63	35.2	0	3	45	0.00	30.230 
15:05	47.1	47.1	47.1	63	35.2	0	3	22	0.00	30.230 
15:10	47.3	47.3	47.3	62	34.9	0	5	22	0.00	30.230 
15:15	47.1	47.1	47.1	60	33.9	1	4	338	0.00	30.235 
15:20	47.1	47.1	47.1	60	33.9	1	4	315	0.00	30.235 
15:25	47.1	47.1	47.1	61	34.4	1	5	315	0.00	30.235 
15:30	47.1	47.1	47.1	60	33.9	1	4	315	0.00	30.238 
15:35	47.1	47.1	47.1	61	34.4	0	2	315	0.00	30.238 
15:40	47.1	47.1	47.1	62	34.8	0	1	315	0.00	30.238 
15:45	47.1	47.1	47.1	61	34.4	0	3	315	0.00	30.240 
15:50	47.0	47.0	47.0	61	34.3	0	2	315	0.00	30.240 
15:55	46.8	46.8	46.8	62	34.5	0	3	68	0.00	30.240 
16:00	46.7	46.7	46.7	61	34.0	0	1	68	0.00	30.243 
16:05	46.7	46.7	46.7	61	34.0	0	3	68	0.00	30.243 
16:10	46.7	46.7	46.7	62	34.4	0	1	45	0.00	30.243 
16:15	46.7	46.7	46.7	62	34.4	0	2	45	0.00	30.250 
16:20	46.5	46.5	46.5	62	34.2	0	2	45	0.00	30.250 
16:25	46.4	46.4	46.4	62	34.1	0	3	22	0.00	30.250 
16:30	46.2	46.2	46.2	62	33.9	0	2	112	0.00	30.258 
16:35	46.2	46.2	46.2	62	33.9	0	3	45	0.00	30.258 
16:40	46.1	46.1	46.1	62	33.8	0	2	315	0.00	30.258 
16:45	46.0	46.0	46.0	62	33.7	0	2	315	0.00	30.267 
16:50	45.8	45.8	45.8	62	33.5	0	1	315	0.00	30.267 
16:55	45.5	45.5	45.5	63	33.6	0	1	315	0.00	30.267 
17:00	45.4	45.4	45.4	64	33.9	0	1	315	0.00	30.264 
17:05	45.2	45.2	45.2	65	34.1	0	1	315	0.00	30.264 
17:10	44.9	44.9	44.9	65	33.9	0	0	---	0.00	30.264 
17:15	44.6	44.6	44.6	66	34.0	0	1	315	0.00	30.267 
17:20	44.3	44.3	44.3	67	34.0	0	0	---	0.00	30.267 
17:25	43.9	43.9	43.9	67	33.7	0	1	315	0.00	30.267 
17:30	43.6	43.6	43.6	69	34.1	0	0	---	0.00	30.269 
17:35	43.3	43.3	43.3	69	33.8	0	0	---	0.00	30.269 
17:40	43.1	43.1	43.1	69	33.6	0	1	315	0.00	30.269 
17:45	42.8	42.8	42.8	70	33.7	0	0	---	0.00	30.273 
17:50	42.5	42.5	42.5	70	33.4	0	0	---	0.00	30.273 
17:55	42.2	42.2	42.2	70	33.1	0	0	---	0.00	30.273 
18:00	41.9	41.9	41.9	71	33.2	0	0	---	0.00	30.286 
18:05	41.6	41.6	41.6	72	33.3	0	0	---	0.00	30.286 
18:10	41.3	41.3	41.3	73	33.3	0	0	---	0.00	30.286 
18:15	41.1	41.1	41.1	73	33.1	0	0	---	0.00	30.293 
18:20	40.6	40.6	40.6	73	32.6	0	0	---	0.00	30.293 
18:25	40.3	40.3	40.3	74	32.7	0	0	---	0.00	30.293 
18:30	39.9	39.9	39.9	76	33.0	0	0	---	0.00	30.296 
18:35	39.5	39.5	39.5	76	32.6	0	0	---	0.00	30.296 
18:40	39.2	39.2	39.2	77	32.6	0	0	---	0.00	30.296 
18:45	38.9	38.9	38.9	78	32.6	0	0	---	0.00	30.302 
18:50	38.6	38.6	38.6	79	32.7	0	0	---	0.00	30.302 
18:55	38.5	38.5	38.5	79	32.6	0	0	---	0.00	30.302 
19:00	38.5	38.5	38.5	80	32.9	0	0	---	0.00	30.312 
19:05	38.5	38.5	38.5	81	33.2	0	1	315	0.00	30.312 
19:10	38.5	38.5	38.5	81	33.2	0	0	---	0.00	30.312 
19:15	38.3	38.3	38.3	81	33.0	0	0	---	0.00	30.321 
19:20	38.3	38.3	38.3	81	33.0	0	0	---	0.00	30.321 
19:25	38.3	38.3	38.3	81	33.0	0	0	---	0.00	30.321 
19:30	38.3	38.3	38.3	81	33.0	0	0	---	0.00	30.326 
19:35	38.3	38.3	38.3	81	33.0	0	0	---	0.00	30.326 
19:40	38.3	38.3	38.3	81	33.0	0	1	315	0.00	30.326 
19:45	38.3	38.3	38.3	81	33.0	0	0	---	0.00	30.330 
19:50	38.5	38.5	38.5	81	33.2	0	1	315	0.00	30.330 
19:55	38.6	38.6	38.6	81	33.3	0	1	315	0.00	30.330 
20:00	38.8	38.8	38.8	80	33.2	0	1	315	0.00	30.337 
20:05	38.8	38.8	38.8	80	33.2	0	1	315	0.00	30.337 
20:10	38.8	38.8	38.8	80	33.2	0	1	315	0.00	30.337 
20:15	38.8	38.8	38.8	80	33.2	0	1	315	0.00	30.338 
20:20	38.8	38.8	38.8	80	33.2	0	1	315	0.00	30.338 
20:25	38.8	38.8	38.8	80	33.2	0	1	315	0.00	30.338 
20:30	38.8	38.8	38.8	80	33.2	0	1	315	0.00	30.339 
20:35	38.8	38.8	38.8	80	33.2	0	1	315	0.00	30.339 
20:40	38.8	38.8	38.8	80	33.2	0	1	315	0.00	30.339 
20:45	38.8	38.8	38.8	80	33.2	0	1	315	0.00	30.339 
20:50	38.8	38.8	38.8	80	33.2	0	2	315	0.00	30.339 
20:55	38.6	38.6	38.6	80	33.0	0	1	315	0.00	30.339 
21:00	38.6	38.6	38.6	80	33.0	0	1	315	0.00	30.333 
21:05	38.6	38.6	38.6	80	33.0	0	2	315	0.00	30.333 
21:10	38.6	38.6	38.6	80	33.0	0	3	315	0.00	30.333 
21:15	38.6	38.6	38.6	80	33.0	0	2	315	0.00	30.338 
21:20	38.6	38.6	38.6	80	33.0	0	3	45	0.00	30.338 
21:25	38.6	38.6	38.6	80	33.0	0	2	45	0.00	30.338 
21:30	38.6	38.6	38.6	80	33.0	0	1	45	0.00	30.333 
21:35	38.5	38.5	38.5	80	32.9	0	3	45	0.00	30.333 
21:40	38.5	38.5	38.5	80	32.9	0	3	68	0.00	30.333 
21:45	38.5	38.5	38.5	80	32.9	0	3	68	0.00	30.335 
21:50	38.5	38.5	38.5	80	32.9	0	1	68	0.00	30.335 
21:55	38.3	38.3	38.3	80	32.7	0	1	68	0.00	30.335 
22:00	38.2	38.2	38.2	80	32.6	0	1	68	0.00	30.340 
22:05	38.2	38.2	38.2	80	32.6	0	1	68	0.00	30.340 
22:10	38.0	38.0	38.0	80	32.4	0	1	68	0.00	30.340 
22:15	37.9	37.9	37.9	80	32.3	0	1	68	0.00	30.339 
22:20	37.9	37.9	37.9	80	32.3	0	3	68	0.00	30.339 
22:25	38.0	38.0	38.0	80	32.4	0	2	68	0.00	30.339 
22:30	38.0	38.0	38.0	80	32.4	1	4	112	0.00	30.337 
22:35	38.0	38.0	38.0	80	32.4	1	3	112	0.00	30.337 
22:40	37.9	37.9	37.9	80	32.3	1	3	112	0.00	30.337 
22:45	37.9	37.9	37.9	80	32.3	1	3	68	0.00	30.338 
22:50	37.9	37.9	37.9	80	32.3	1	4	68	0.00	30.338 
22:55	37.8	37.8	37.8	80	32.2	1	4	68	0.00	30.338 
23:00	37.6	37.6	37.6	81	32.3	1	4	112	0.00	30.340 
23:05	37.5	37.5	37.5	81	32.2	1	4	112	0.00	30.340 
23:10	37.3	37.3	37.3	81	32.0	1	3	112	0.00	30.340 
23:15	37.3	37.3	37.3	81	32.0	0	3	112	0.00	30.343 
23:20	37.3	37.3	37.3	81	32.0	1	6	112	0.00	30.343 
23:25	37.3	37.3	37.3	81	32.0	1	4	45	0.00	30.343 
23:30	37.2	37.2	37.2	81	31.9	1	4	112	0.00	30.337 
23:35	37.0	37.0	37.0	81	31.7	2	5	112	0.00	30.337 
23:40	37.0	37.0	37.0	81	31.7	2	6	90	0.00	30.337 
23:45	36.9	36.9	36.9	82	31.9	1	4	90	0.00	30.339 
23:50	36.8	36.8	36.8	82	31.8	1	5	90	0.00	30.339 
23:55	36.6	36.6	36.6	82	31.6	1	9	90	0.00	30.339 

CoCoRaHS
IN-AL-39
A2 Web Hosting
Creative Commons License
GoDaddy
search engine by freefind advanced

loaded 2018-11-16 00:49:14 • last modified 2010-11-18 10:43:29
Privacy PolicyDisclaimer
• wx.awcolley.com is powered by PmWiki v.2002016 •
• all content (unless otherwise noted) © 2018 A W Colley